createdAt,value
2019-04-16T00:20:17.300Z,17.07
2019-04-16T00:23:26.456Z,15.20
2019-04-16T00:26:05.123Z,24.10
2019-04-16T00:28:37.838Z,16.43
2019-04-16T00:34:39.057Z,19.63
2019-04-16T00:38:40.507Z,14.07
2019-04-16T00:41:18.699Z,16.70
2019-04-16T00:44:26.178Z,17.20
2019-04-16T00:47:22.220Z,21.73
2019-04-16T00:52:50.289Z,16.70
2019-04-16T01:01:44.312Z,14.57
2019-04-16T01:04:32.054Z,12.63
2019-04-16T01:07:22.329Z,16.80
2019-04-16T01:16:02.688Z,21.93
2019-04-16T01:18:27.053Z,16.07
2019-04-16T01:21:22.972Z,17.60
2019-04-16T01:27:59.834Z,12.87
2019-04-16T01:30:21.808Z,14.87
2019-04-16T01:33:20.295Z,11.87
2019-04-16T01:36:39.541Z,16.93
2019-04-16T01:42:31.084Z,20.03
2019-04-16T01:45:13.416Z,15.10
2019-04-16T01:47:52.616Z,14.10
2019-04-16T01:50:48.576Z,14.37
2019-04-16T01:54:30.582Z,19.47
2019-04-16T01:56:51.411Z,16.63
2019-04-16T02:00:10.828Z,13.03
2019-04-16T02:06:43.490Z,12.20
2019-04-16T02:10:06.623Z,13.27
2019-04-16T02:19:32.272Z,12.90
2019-04-16T02:24:41.244Z,22.43
2019-04-16T02:27:30.184Z,21.00
2019-04-16T02:33:03.364Z,19.03
2019-04-16T02:35:39.901Z,15.07
2019-04-16T02:38:22.587Z,16.87
2019-04-16T02:40:35.819Z,11.63
2019-04-16T02:43:39.586Z,16.90
2019-04-16T02:47:50.641Z,13.60
2019-04-16T02:48:59.584Z,36.27
2019-04-16T02:51:41.194Z,17.60
2019-04-16T02:57:26.679Z,23.40
2019-04-16T03:02:41.927Z,11.03
2019-04-16T03:08:42.701Z,14.50
2019-04-16T03:11:33.998Z,20.83
2019-04-16T03:14:08.551Z,12.80
2019-04-16T03:20:23.837Z,15.00
2019-04-16T03:23:07.093Z,24.70
2019-04-16T03:25:47.822Z,19.00
2019-04-16T03:28:52.351Z,16.20
2019-04-16T03:34:30.281Z,14.70
2019-04-16T03:37:32.992Z,15.20
2019-04-16T03:39:53.486Z,14.40
2019-04-16T03:45:39.927Z,17.73
2019-04-16T03:48:09.739Z,16.27
2019-04-16T03:51:43.586Z,14.47
2019-04-16T03:54:26.466Z,14.77
2019-04-16T03:57:13.061Z,17.50
2019-04-16T04:09:51.500Z,19.57
2019-04-16T04:17:22.822Z,11.00
2019-04-16T04:19:33.073Z,16.10
2019-04-16T04:21:41.305Z,15.30
2019-04-16T04:24:32.181Z,18.50
2019-04-16T04:27:05.211Z,20.83
2019-04-16T04:29:50.527Z,16.20
2019-04-16T04:35:53.365Z,17.80
2019-04-16T04:38:05.064Z,19.50
2019-04-16T04:43:00.967Z,15.00
2019-04-16T04:45:18.970Z,20.17
2019-04-16T04:47:53.088Z,13.53
2019-04-16T04:50:32.476Z,15.03
2019-04-16T04:53:17.792Z,22.50
2019-04-16T04:55:34.514Z,21.20
2019-04-16T04:57:50.360Z,24.20
2019-04-16T05:00:09.136Z,13.23
2019-04-16T05:02:29.169Z,20.43
2019-04-16T05:05:10.119Z,26.27
2019-04-16T05:07:30.192Z,21.23
2019-04-16T05:09:51.600Z,12.27
2019-04-16T05:12:08.742Z,21.83
2019-04-16T05:14:48.238Z,17.10
2019-04-16T05:17:00.319Z,15.60
2019-04-16T05:19:33.350Z,14.97
2019-04-16T05:22:41.650Z,17.77
2019-04-16T05:24:50.744Z,13.73
2019-04-16T05:27:05.456Z,14.60
2019-04-16T05:29:33.403Z,36.03
2019-04-16T05:31:59.073Z,25.13
2019-04-16T05:34:20.069Z,16.47
2019-04-16T05:36:47.493Z,17.10
2019-04-16T05:38:57.477Z,11.90
2019-04-16T05:41:13.512Z,12.60
2019-04-16T05:43:43.410Z,13.87
2019-04-16T05:46:19.909Z,15.77
2019-04-16T05:48:46.604Z,11.20
2019-04-16T05:51:03.671Z,18.23
2019-04-16T05:53:44.153Z,10.80
2019-04-16T05:56:24.739Z,13.50
2019-04-16T05:59:42.643Z,13.50
2019-04-16T06:05:07.625Z,15.90
2019-04-16T06:10:39.069Z,12.90
2019-04-16T06:15:40.943Z,14.83
2019-04-16T06:18:21.968Z,14.30
2019-04-16T06:20:53.659Z,16.53
2019-04-16T06:23:25.152Z,10.57
2019-04-16T06:26:00.802Z,18.43
2019-04-16T06:28:24.035Z,11.83
2019-04-16T06:31:21.206Z,14.87
2019-04-16T06:34:29.338Z,17.07
2019-04-16T06:45:22.886Z,12.03
2019-04-16T06:47:50.532Z,16.17
2019-04-16T06:50:04.504Z,12.87
2019-04-16T06:52:26.911Z,14.10
2019-04-16T06:54:55.287Z,21.57
2019-04-16T06:57:40.400Z,14.50
2019-04-16T07:37:35.827Z,17.83
2019-04-16T07:50:23.121Z,11.97
2019-04-16T07:56:22.645Z,16.13
2019-04-16T07:59:33.031Z,15.87
2019-04-16T08:02:27.144Z,16.07
2019-04-16T08:14:26.453Z,21.80
2019-04-16T08:53:35.470Z,17.50
2019-04-16T09:17:35.190Z,25.90
2019-04-16T09:20:51.680Z,20.93
2019-04-16T09:30:16.845Z,29.50
2019-04-16T09:33:18.845Z,20.20
2019-04-16T10:17:58.641Z,22.23
2019-04-16T10:23:12.700Z,19.27
2019-04-16T10:25:15.391Z,24.80
2019-04-16T10:34:51.138Z,23.87
2019-04-16T13:31:20.974Z,22.53
2019-04-16T13:38:30.030Z,18.63
2019-04-16T13:44:30.292Z,23.47
2019-04-16T13:47:19.025Z,26.33
2019-04-16T13:50:04.297Z,19.97
2019-04-16T13:52:17.022Z,21.47
2019-04-16T13:55:00.480Z,20.73
2019-04-16T13:57:52.086Z,23.00
2019-04-16T14:58:16.239Z,32.63
2019-04-16T15:03:38.174Z,32.53
2019-04-16T15:57:25.769Z,35.00
2019-04-16T16:24:57.635Z,35.40
2019-04-16T16:30:58.170Z,31.13
2019-04-16T16:39:09.254Z,31.73
2019-04-16T16:46:59.566Z,31.20
2019-04-16T19:05:10.817Z,33.03
2019-04-16T19:07:29.264Z,34.93
2019-04-16T19:09:45.162Z,49.53
2019-04-16T19:12:06.327Z,29.00
2019-04-16T19:14:36.482Z,36.13
2019-04-16T19:16:47.134Z,28.93
2019-04-16T19:22:16.637Z,32.93
2019-04-16T19:24:58.411Z,33.27
2019-04-16T19:27:48.547Z,46.83
2019-04-16T19:31:57.466Z,27.83
2019-04-16T19:42:52.017Z,30.03
2019-04-16T20:05:28.800Z,39.80
2019-04-16T20:07:54.014Z,24.67
2019-04-16T20:21:38.139Z,39.70
2019-04-16T20:24:16.679Z,29.77
2019-04-16T20:27:06.197Z,30.20
2019-04-16T20:31:42.823Z,33.60
2019-04-16T20:33:58.934Z,34.43
2019-04-16T20:42:01.609Z,34.37
2019-04-16T20:53:06.181Z,30.37
2019-04-16T20:58:31.502Z,30.17
2019-04-16T21:07:00.791Z,38.13
2019-04-16T21:09:15.978Z,33.67
2019-04-16T21:11:20.047Z,33.83
2019-04-16T21:16:37.400Z,39.50
2019-04-16T21:19:00.559Z,34.60
2019-04-16T21:21:24.352Z,32.40
2019-04-16T21:23:48.895Z,36.67
2019-04-16T21:26:12.020Z,31.80
2019-04-16T21:31:31.393Z,32.47
2019-04-16T21:34:13.606Z,56.03
2019-04-16T21:36:55.756Z,36.60
2019-04-16T21:39:37.451Z,39.87
2019-04-16T21:42:02.807Z,42.10
2019-04-16T21:44:24.302Z,38.13
2019-04-16T21:46:52.024Z,40.73
2019-04-16T21:49:11.438Z,38.67
2019-04-16T21:51:34.118Z,48.50
2019-04-16T21:53:58.720Z,44.00
2019-04-16T21:56:22.056Z,40.53
2019-04-16T21:58:46.665Z,35.83
2019-04-16T22:01:29.122Z,36.00
2019-04-16T22:03:33.586Z,41.40
2019-04-16T22:05:57.305Z,38.23
2019-04-16T22:08:20.515Z,34.77
2019-04-16T22:10:46.620Z,42.20
2019-04-16T22:13:08.507Z,40.57
2019-04-16T22:15:31.545Z,38.03
2019-04-16T22:17:54.799Z,37.30
2019-04-16T22:20:17.936Z,46.40
2019-04-16T22:22:43.655Z,41.77
2019-04-16T22:25:06.258Z,42.00
2019-04-16T22:27:30.846Z,42.03
2019-04-16T22:29:53.876Z,37.13
2019-04-16T22:32:09.191Z,38.53
2019-04-16T22:34:32.227Z,37.57
2019-04-16T22:36:55.276Z,37.17
2019-04-16T22:39:37.535Z,39.50
2019-04-16T22:42:19.971Z,62.40
2019-04-16T22:44:45.111Z,40.80
2019-04-16T22:47:20.773Z,40.27
2019-04-16T22:49:43.800Z,46.87
2019-04-16T22:51:47.666Z,41.50
2019-04-16T22:54:10.804Z,43.57
2019-04-16T22:56:52.983Z,41.17
2019-04-16T22:59:16.094Z,37.37
2019-04-16T23:04:04.879Z,41.40
2019-04-16T23:06:28.039Z,41.07
2019-04-16T23:08:51.124Z,54.93
2019-04-16T23:11:14.205Z,41.77
2019-04-16T23:13:37.299Z,40.97
2019-04-16T23:16:00.351Z,39.73
2019-04-16T23:18:23.474Z,42.27
2019-04-16T23:20:46.566Z,39.90
2019-04-16T23:22:50.427Z,43.33
2019-04-16T23:25:32.436Z,39.63
2019-04-16T23:27:55.543Z,38.50
2019-04-16T23:30:19.228Z,42.40
2019-04-16T23:32:34.800Z,42.40
2019-04-16T23:34:58.014Z,38.30
2019-04-16T23:37:23.251Z,42.30
2019-04-16T23:39:45.971Z,47.20
2019-04-16T23:42:09.098Z,48.80
2019-04-16T23:44:50.895Z,40.83
2019-04-16T23:47:32.593Z,41.40
2019-04-16T23:50:14.872Z,39.83
2019-04-16T23:52:42.434Z,43.60
2019-04-16T23:55:08.319Z,39.47
2019-04-16T23:57:40.186Z,37.77
